createdAt,value
2022-10-23T00:00:03.364Z,955.88
2022-10-23T00:01:03.201Z,955.93
2022-10-23T00:02:03.295Z,955.97
2022-10-23T00:03:03.180Z,955.99
2022-10-23T00:04:03.170Z,956.01
2022-10-23T00:05:03.182Z,956
2022-10-23T00:06:03.163Z,955.97
2022-10-23T00:07:03.140Z,955.97
2022-10-23T00:08:03.127Z,955.95
2022-10-23T00:09:03.115Z,955.93
2022-10-23T00:10:03.105Z,955.93
2022-10-23T00:11:03.095Z,955.92
2022-10-23T00:12:03.084Z,955.95
2022-10-23T00:13:03.071Z,955.89
2022-10-23T00:14:03.064Z,955.92
2022-10-23T00:15:03.051Z,955.89
2022-10-23T00:16:03.043Z,955.9
2022-10-23T00:17:03.028Z,955.92
2022-10-23T00:18:03.020Z,955.93
2022-10-23T00:19:03.009Z,955.95
2022-10-23T00:20:03.001Z,955.92
2022-10-23T00:21:03.011Z,956
2022-10-23T00:22:02.974Z,955.97
2022-10-23T00:23:02.963Z,955.98
2022-10-23T00:24:03.034Z,955.97
2022-10-23T00:25:02.943Z,955.94
2022-10-23T00:26:02.930Z,955.9
2022-10-23T00:27:02.921Z,955.92
2022-10-23T00:28:02.907Z,955.94
2022-10-23T00:29:02.899Z,955.9
2022-10-23T00:30:02.884Z,955.94
2022-10-23T00:31:02.874Z,955.93
2022-10-23T00:32:02.862Z,955.94
2022-10-23T00:33:02.852Z,955.93
2022-10-23T00:34:02.840Z,955.9
2022-10-23T00:35:02.830Z,955.88
2022-10-23T00:36:02.817Z,955.9
2022-10-23T00:37:02.832Z,955.9
2022-10-23T00:38:02.793Z,955.85
2022-10-23T00:39:02.823Z,955.91
2022-10-23T00:40:02.771Z,955.86
2022-10-23T00:41:02.762Z,955.84
2022-10-23T00:42:02.749Z,955.9
2022-10-23T00:43:02.740Z,955.93
2022-10-23T00:44:02.732Z,955.9
2022-10-23T00:45:02.717Z,955.86
2022-10-23T00:46:02.703Z,955.85
2022-10-23T00:47:02.709Z,955.92
2022-10-23T00:48:02.681Z,955.9
2022-10-23T00:49:02.766Z,955.91
2022-10-23T00:50:02.664Z,955.91
2022-10-23T00:51:02.650Z,955.92
2022-10-23T00:52:02.635Z,955.96
2022-10-23T00:53:02.651Z,955.94
2022-10-23T00:54:22.728Z,955.91
2022-10-23T00:55:02.603Z,955.91
2022-10-23T00:56:02.589Z,955.92
2022-10-23T00:57:02.579Z,955.85
2022-10-23T00:58:02.568Z,955.89
2022-10-23T00:59:02.557Z,955.87
2022-10-23T01:00:02.545Z,955.84
2022-10-23T01:01:02.592Z,955.87
2022-10-23T01:02:02.647Z,955.84
2022-10-23T01:03:02.514Z,955.87
2022-10-23T01:04:02.498Z,955.81
2022-10-23T01:05:02.493Z,955.83
2022-10-23T01:06:02.494Z,955.85
2022-10-23T01:07:02.465Z,955.86
2022-10-23T01:08:02.454Z,955.86
2022-10-23T01:09:02.466Z,955.9
2022-10-23T01:10:02.428Z,955.95
2022-10-23T01:11:02.418Z,955.93
2022-10-23T01:12:02.408Z,955.92
2022-10-23T01:13:02.398Z,955.95
2022-10-23T01:15:02.370Z,955.88
2022-10-23T01:16:02.362Z,955.91
2022-10-23T01:17:02.348Z,955.87
2022-10-23T01:18:02.337Z,955.87
2022-10-23T01:19:02.325Z,955.81
2022-10-23T01:20:02.314Z,955.85
2022-10-23T01:21:02.302Z,955.85
2022-10-23T01:22:02.294Z,955.86
2022-10-23T01:23:02.279Z,955.91
2022-10-23T01:24:02.269Z,955.89
2022-10-23T01:25:02.282Z,955.89
2022-10-23T01:26:02.245Z,955.86
2022-10-23T01:27:02.234Z,955.85
2022-10-23T01:28:02.222Z,955.83
2022-10-23T01:29:02.209Z,955.78
2022-10-23T01:30:02.199Z,955.81
2022-10-23T01:31:02.187Z,955.78
2022-10-23T01:32:02.179Z,955.77
2022-10-23T01:33:02.163Z,955.8
2022-10-23T01:34:02.152Z,955.78
2022-10-23T01:35:02.139Z,955.74
2022-10-23T01:36:02.129Z,955.75
2022-10-23T01:37:02.115Z,955.74
2022-10-23T01:38:02.106Z,955.75
2022-10-23T01:40:02.084Z,955.72
2022-10-23T01:41:02.096Z,955.69
2022-10-23T01:42:02.063Z,955.71
2022-10-23T01:43:02.054Z,955.7
2022-10-23T01:44:02.036Z,955.7
2022-10-23T01:45:02.031Z,955.69
2022-10-23T01:46:02.016Z,955.7
2022-10-23T01:47:01.999Z,955.68
2022-10-23T01:48:01.990Z,955.69
2022-10-23T01:49:01.977Z,955.71
2022-10-23T01:50:01.966Z,955.66
2022-10-23T01:51:01.953Z,955.67
2022-10-23T01:52:01.941Z,955.71
2022-10-23T01:53:01.929Z,955.73
2022-10-23T01:54:01.920Z,955.68
2022-10-23T01:55:01.911Z,955.69
2022-10-23T01:56:01.895Z,955.7
2022-10-23T01:57:01.905Z,955.71
2022-10-23T01:58:01.870Z,955.71
2022-10-23T01:59:01.857Z,955.67
2022-10-23T02:00:01.857Z,955.67
2022-10-23T02:01:01.868Z,955.65
2022-10-23T02:02:01.966Z,955.63
2022-10-23T02:03:01.811Z,955.61
2022-10-23T02:04:01.798Z,955.64
2022-10-23T02:05:01.786Z,955.67
2022-10-23T02:06:01.775Z,955.66
2022-10-23T02:07:01.764Z,955.61
2022-10-23T02:08:01.750Z,955.64
2022-10-23T02:09:01.739Z,955.63
2022-10-23T02:10:01.728Z,955.61
2022-10-23T02:11:01.716Z,955.57
2022-10-23T02:12:01.703Z,955.6
2022-10-23T02:13:01.715Z,955.59
2022-10-23T02:14:01.677Z,955.56
2022-10-23T02:15:01.666Z,955.55
2022-10-23T02:16:01.652Z,955.55
2022-10-23T02:17:01.642Z,955.58
2022-10-23T02:18:01.630Z,955.55
2022-10-23T02:19:01.619Z,955.58
2022-10-23T02:20:01.605Z,955.59
2022-10-23T02:21:01.592Z,955.59
2022-10-23T02:22:01.582Z,955.61
2022-10-23T02:23:01.568Z,955.58
2022-10-23T02:24:01.556Z,955.58
2022-10-23T02:25:01.545Z,955.53
2022-10-23T02:26:01.534Z,955.56
2022-10-23T02:27:01.519Z,955.54
2022-10-23T02:28:01.506Z,955.48
2022-10-23T02:29:01.578Z,955.5
2022-10-23T02:30:01.482Z,955.47
2022-10-23T02:31:01.477Z,955.53
2022-10-23T02:32:01.460Z,955.45
2022-10-23T02:33:01.448Z,955.45
2022-10-23T02:34:01.433Z,955.45
2022-10-23T02:35:01.422Z,955.4
2022-10-23T02:36:01.409Z,955.39
2022-10-23T02:37:01.398Z,955.41
2022-10-23T02:38:01.382Z,955.37
2022-10-23T02:39:01.373Z,955.36
2022-10-23T02:40:01.360Z,955.36
2022-10-23T02:41:01.349Z,955.35
2022-10-23T02:42:01.335Z,955.34
2022-10-23T02:43:01.325Z,955.37
2022-10-23T02:44:01.311Z,955.32
2022-10-23T02:45:01.325Z,955.29
2022-10-23T02:46:01.287Z,955.29
2022-10-23T02:47:01.275Z,955.26
2022-10-23T02:48:01.262Z,955.25
2022-10-23T02:49:01.249Z,955.23
2022-10-23T02:50:01.237Z,955.23
2022-10-23T02:51:01.226Z,955.22
2022-10-23T02:52:01.214Z,955.2
2022-10-23T02:53:01.198Z,955.19
2022-10-23T02:54:01.191Z,955.21
2022-10-23T02:55:01.174Z,955.16
2022-10-23T02:56:01.165Z,955.14
2022-10-23T02:57:01.149Z,955.14
2022-10-23T02:58:01.139Z,955.12
2022-10-23T02:59:01.126Z,955.09
2022-10-23T03:00:01.112Z,955.13
2022-10-23T03:01:01.179Z,955.13
2022-10-23T03:02:01.153Z,955.14
2022-10-23T03:03:01.076Z,955.15
2022-10-23T03:04:01.069Z,955.13
2022-10-23T03:05:01.049Z,955.18
2022-10-23T03:06:01.039Z,955.19
2022-10-23T03:07:01.026Z,955.18
2022-10-23T03:08:01.014Z,955.18
2022-10-23T03:09:01.000Z,955.22
2022-10-23T03:10:00.997Z,955.22
2022-10-23T03:11:00.979Z,955.23
2022-10-23T03:12:00.965Z,955.24
2022-10-23T03:13:00.951Z,955.26
2022-10-23T03:14:00.939Z,955.25
2022-10-23T03:15:00.930Z,955.22
2022-10-23T03:16:00.914Z,955.18
2022-10-23T03:17:00.924Z,955.21
2022-10-23T03:18:00.888Z,955.2
2022-10-23T03:19:00.915Z,955.21
2022-10-23T03:20:00.872Z,955.21
2022-10-23T03:21:00.850Z,955.18
2022-10-23T03:22:00.842Z,955.2
2022-10-23T03:23:00.824Z,955.18
2022-10-23T03:24:00.814Z,955.18
2022-10-23T03:25:00.800Z,955.14
2022-10-23T03:26:00.789Z,955.15
2022-10-23T03:27:00.775Z,955.15
2022-10-23T03:28:00.764Z,955.13
2022-10-23T03:29:00.751Z,955.14
2022-10-23T03:30:00.740Z,955.14
2022-10-23T03:31:00.726Z,955.14
2022-10-23T03:32:00.715Z,955.15
2022-10-23T03:49:31.637Z,955.17
2022-10-23T03:50:31.588Z,955.13
2022-10-23T03:51:31.575Z,955.11
2022-10-23T03:52:31.571Z,955.18
2022-10-23T03:53:31.544Z,955.18
2022-10-23T03:54:31.529Z,955.17
2022-10-23T03:55:31.515Z,955.17
2022-10-23T03:56:31.497Z,955.18
2022-10-23T03:57:31.485Z,955.18
2022-10-23T03:58:31.470Z,955.11
2022-10-23T03:59:31.456Z,955.13
2022-10-23T04:00:32.281Z,955.11
2022-10-23T04:01:32.323Z,955.08
2022-10-23T04:02:32.235Z,955.17
2022-10-23T04:03:32.194Z,955.16
2022-10-23T04:04:32.176Z,955.17
2022-10-23T04:05:32.188Z,955.16
2022-10-23T04:06:32.150Z,955.14
2022-10-23T04:07:32.139Z,955.12
2022-10-23T04:08:32.123Z,955.09
2022-10-23T04:09:32.113Z,955.06
2022-10-23T04:10:32.096Z,955.08
2022-10-23T04:11:32.084Z,955.09
2022-10-23T04:12:32.070Z,955.05
2022-10-23T04:13:32.058Z,955.1
2022-10-23T04:14:32.045Z,955.15
2022-10-23T04:15:32.033Z,955.13
2022-10-23T04:16:32.018Z,955.07
2022-10-23T04:17:32.011Z,955.1
2022-10-23T04:18:31.993Z,955.07
2022-10-23T04:19:31.984Z,955.07
2022-10-23T04:20:31.967Z,955.1
2022-10-23T04:21:31.984Z,955.09
2022-10-23T04:22:32.466Z,955.11
2022-10-23T04:23:32.452Z,955.08
2022-10-23T04:24:32.439Z,955.07
2022-10-23T04:25:32.427Z,955.05
2022-10-23T04:26:32.411Z,955.05
2022-10-23T04:27:32.401Z,955.09
2022-10-23T04:28:32.387Z,955.11
2022-10-23T04:29:32.377Z,955.16
2022-10-23T04:30:32.363Z,955.18
2022-10-23T04:31:32.354Z,955.21
2022-10-23T04:32:32.336Z,955.16
2022-10-23T04:33:32.324Z,955.16
2022-10-23T04:34:32.310Z,955.14
2022-10-23T04:35:32.300Z,955.15
2022-10-23T04:36:32.287Z,955.15
2022-10-23T04:37:32.299Z,955.13
2022-10-23T04:38:32.261Z,955.14
2022-10-23T04:39:32.249Z,955.15
2022-10-23T04:40:32.238Z,955.15
2022-10-23T04:41:32.221Z,955.14
2022-10-23T04:42:32.212Z,955.13
2022-10-23T04:43:32.199Z,955.15
2022-10-23T04:44:32.185Z,955.19
2022-10-23T04:45:32.175Z,955.23
2022-10-23T04:46:32.161Z,955.23
2022-10-23T04:47:32.147Z,955.19
2022-10-23T04:48:32.135Z,955.18
2022-10-23T04:49:32.120Z,955.22
2022-10-23T04:50:32.110Z,955.19
2022-10-23T04:51:32.097Z,955.25
2022-10-23T04:52:32.086Z,955.22
2022-10-23T04:53:32.096Z,955.21
2022-10-23T04:54:32.059Z,955.2
2022-10-23T04:55:32.045Z,955.18
2022-10-23T04:56:32.035Z,955.18
2022-10-23T04:57:32.019Z,955.22
2022-10-23T04:58:32.012Z,955.21
2022-10-23T04:59:31.996Z,955.24
2022-10-23T05:00:32.021Z,955.23
2022-10-23T05:01:32.072Z,955.25
2022-10-23T05:02:31.959Z,955.23
2022-10-23T05:03:31.944Z,955.21
2022-10-23T05:04:31.934Z,955.13
2022-10-23T05:05:31.920Z,955.09
2022-10-23T05:06:31.907Z,955.06
2022-10-23T05:07:31.894Z,955.05
2022-10-23T05:08:31.882Z,955.05
2022-10-23T05:09:31.897Z,955.05
2022-10-23T05:10:31.858Z,955.07
2022-10-23T05:11:31.843Z,955.05
2022-10-23T05:12:31.835Z,955.05
2022-10-23T05:13:31.819Z,955.05
2022-10-23T05:14:31.807Z,955.05
2022-10-23T05:15:31.851Z,955.07
2022-10-23T05:16:31.782Z,955.09
2022-10-23T05:17:31.769Z,955.09
2022-10-23T05:18:31.758Z,955.04
2022-10-23T05:19:31.745Z,955.04
2022-10-23T05:20:31.733Z,954.98
2022-10-23T05:21:31.718Z,955
2022-10-23T05:22:31.707Z,954.99
2022-10-23T05:23:31.693Z,954.98
2022-10-23T05:24:31.682Z,954.93
2022-10-23T05:25:31.691Z,954.93
2022-10-23T05:26:31.663Z,954.85
2022-10-23T05:27:31.642Z,954.87
2022-10-23T05:28:31.631Z,954.87
2022-10-23T05:29:32.169Z,954.85
2022-10-23T05:30:32.940Z,954.85
2022-10-23T05:31:32.925Z,954.85
2022-10-23T05:32:32.916Z,954.83
2022-10-23T05:33:32.903Z,954.88
2022-10-23T05:34:32.888Z,954.83
2022-10-23T05:35:32.877Z,954.85
2022-10-23T05:36:32.862Z,954.88
2022-10-23T05:37:32.854Z,954.82
2022-10-23T05:38:32.837Z,954.86
2022-10-23T05:39:32.827Z,954.86
2022-10-23T05:40:32.855Z,954.88
2022-10-23T05:41:32.830Z,954.84
2022-10-23T05:42:32.786Z,954.9
2022-10-23T05:43:32.777Z,954.92
2022-10-23T05:44:32.763Z,954.84
2022-10-23T05:45:32.754Z,954.86
2022-10-23T05:46:32.736Z,954.81
2022-10-23T05:47:32.726Z,954.84
2022-10-23T05:48:34.922Z,954.85
2022-10-23T05:49:32.705Z,954.87
2022-10-23T05:50:32.686Z,954.9
2022-10-23T05:51:32.676Z,954.85
2022-10-23T05:52:32.662Z,954.89
2022-10-23T05:53:32.651Z,954.93
2022-10-23T05:54:32.636Z,954.92
2022-10-23T05:55:32.626Z,954.9
2022-10-23T05:56:32.613Z,954.95
2022-10-23T05:57:32.642Z,954.99
2022-10-23T05:58:32.587Z,955.01
2022-10-23T05:59:32.576Z,954.94
2022-10-23T06:00:32.564Z,955
2022-10-23T06:01:32.682Z,955.05
2022-10-23T06:02:32.565Z,955.04
2022-10-23T06:03:32.527Z,955.04
2022-10-23T06:04:32.515Z,955.09
2022-10-23T06:05:32.552Z,955.06
2022-10-23T06:06:32.488Z,955.11
2022-10-23T06:07:33.751Z,955.05
2022-10-23T06:08:32.466Z,955.05
2022-10-23T06:09:32.452Z,955.06
2022-10-23T06:10:32.438Z,955.05
2022-10-23T06:11:32.428Z,955
2022-10-23T06:12:32.416Z,954.97
2022-10-23T06:13:32.429Z,954.93
2022-10-23T06:14:32.391Z,954.95
2022-10-23T06:15:32.379Z,954.99
2022-10-23T06:16:32.364Z,954.92
2022-10-23T06:17:32.356Z,954.94
2022-10-23T06:18:32.341Z,954.96
2022-10-23T06:19:32.329Z,954.9
2022-10-23T06:20:32.316Z,954.95
2022-10-23T06:21:32.306Z,955.02
2022-10-23T06:22:32.292Z,955.02
2022-10-23T06:23:32.281Z,954.99
2022-10-23T06:24:32.269Z,955.02
2022-10-23T06:25:32.255Z,954.99
2022-10-23T06:26:32.245Z,955.01
2022-10-23T06:27:32.230Z,954.95
2022-10-23T06:28:32.220Z,954.92
2022-10-23T06:29:32.232Z,955
2022-10-23T06:30:32.273Z,954.95
2022-10-23T06:31:32.193Z,954.96
2022-10-23T06:32:32.172Z,954.96
2022-10-23T06:33:32.159Z,954.98
2022-10-23T06:34:32.148Z,954.93
2022-10-23T06:35:32.134Z,955.02
2022-10-23T06:36:32.124Z,955.02
2022-10-23T06:37:32.111Z,954.97
2022-10-23T06:38:32.101Z,955
2022-10-23T06:39:32.300Z,955.08
2022-10-23T06:40:32.076Z,955.04
2022-10-23T06:41:32.064Z,955.02
2022-10-23T06:42:32.059Z,955.02
2022-10-23T06:43:32.038Z,954.99
2022-10-23T06:44:32.029Z,954.94
2022-10-23T06:45:32.041Z,954.94
2022-10-23T06:46:32.007Z,955.01
2022-10-23T06:47:31.993Z,954.94
2022-10-23T06:48:31.983Z,954.96
2022-10-23T06:49:31.972Z,954.89
2022-10-23T06:50:32.065Z,954.96
2022-10-23T06:51:31.950Z,954.94
2022-10-23T06:52:46.290Z,954.96
2022-10-23T06:53:31.924Z,954.97
2022-10-23T06:54:31.916Z,954.95
2022-10-23T06:55:31.907Z,954.88
2022-10-23T06:56:31.888Z,954.87
2022-10-23T06:57:31.878Z,954.87
2022-10-23T06:58:31.867Z,954.9
2022-10-23T06:59:31.852Z,954.87
2022-10-23T07:00:31.887Z,954.9
2022-10-23T07:01:32.004Z,954.95
2022-10-23T07:02:31.821Z,954.87
2022-10-23T07:03:31.807Z,954.94
2022-10-23T07:04:31.796Z,954.94
2022-10-23T07:05:31.786Z,954.91
2022-10-23T07:06:31.774Z,954.92
2022-10-23T07:07:31.762Z,954.89
2022-10-23T07:08:31.751Z,954.94
2022-10-23T07:09:31.739Z,954.97
2022-10-23T07:10:31.729Z,954.97
2022-10-23T07:11:31.720Z,954.93
2022-10-23T07:12:31.706Z,954.91
2022-10-23T07:13:31.692Z,954.93
2022-10-23T07:14:31.683Z,954.88
2022-10-23T07:15:31.673Z,954.97
2022-10-23T07:16:31.660Z,954.95
2022-10-23T07:17:31.673Z,954.9
2022-10-23T07:18:31.672Z,954.92
2022-10-23T07:19:31.628Z,954.93
2022-10-23T07:20:31.616Z,954.96
2022-10-23T07:21:31.604Z,954.93
2022-10-23T07:22:31.594Z,954.95
2022-10-23T07:23:31.589Z,954.95
2022-10-23T07:24:31.570Z,954.96
2022-10-23T07:25:31.561Z,955.01
2022-10-23T07:26:31.554Z,955
2022-10-23T07:27:31.543Z,954.94
2022-10-23T07:28:31.528Z,954.95
2022-10-23T07:29:31.518Z,954.91
2022-10-23T07:30:31.506Z,954.93
2022-10-23T07:31:31.499Z,954.87
2022-10-23T07:32:31.485Z,954.89
2022-10-23T07:33:31.501Z,954.84
2022-10-23T07:34:31.465Z,954.91
2022-10-23T07:35:32.114Z,954.89
2022-10-23T07:36:31.445Z,954.86
2022-10-23T07:37:31.435Z,954.9
2022-10-23T07:38:31.425Z,954.84
2022-10-23T07:39:31.414Z,954.85
2022-10-23T07:40:31.404Z,954.78
2022-10-23T07:41:31.395Z,954.76
2022-10-23T07:42:31.383Z,954.75
2022-10-23T07:44:31.367Z,954.86
2022-10-23T07:45:31.356Z,954.84
2022-10-23T07:46:31.344Z,954.88
2022-10-23T07:47:31.338Z,954.84
2022-10-23T07:48:31.324Z,954.91
2022-10-23T07:49:31.341Z,954.92
2022-10-23T07:50:31.303Z,954.88
2022-10-23T07:51:31.296Z,954.82
2022-10-23T07:52:33.451Z,954.81
2022-10-23T07:53:31.279Z,954.79
2022-10-23T07:54:31.273Z,954.7
2022-10-23T07:55:31.258Z,954.75
2022-10-23T07:56:31.249Z,954.74
2022-10-23T07:57:31.239Z,954.79
2022-10-23T07:58:31.228Z,954.79
2022-10-23T07:59:34.490Z,954.82
2022-10-23T08:00:31.210Z,954.8
2022-10-23T08:01:31.250Z,954.77
2022-10-23T08:02:31.217Z,954.78
2022-10-23T08:03:31.183Z,954.8
2022-10-23T08:04:31.172Z,954.77
2022-10-23T08:05:31.185Z,954.82
2022-10-23T08:06:31.156Z,954.77
2022-10-23T08:07:31.143Z,954.84
2022-10-23T08:08:31.134Z,954.84
2022-10-23T08:09:31.126Z,954.81
2022-10-23T08:10:31.316Z,954.86
2022-10-23T08:11:31.305Z,954.82
2022-10-23T08:12:31.297Z,954.85
2022-10-23T08:13:31.286Z,954.8
2022-10-23T08:14:31.279Z,954.86
2022-10-23T08:15:31.268Z,954.79
2022-10-23T08:16:31.262Z,954.81
2022-10-23T08:17:31.249Z,954.8
2022-10-23T08:18:31.242Z,954.8
2022-10-23T08:19:31.231Z,954.8
2022-10-23T08:20:31.223Z,954.77
2022-10-23T08:21:31.236Z,954.75
2022-10-23T08:22:31.214Z,954.79
2022-10-23T08:23:31.195Z,954.77
2022-10-23T08:24:31.186Z,954.88
2022-10-23T08:26:31.177Z,954.79
2022-10-23T08:27:31.162Z,954.8
2022-10-23T08:28:31.151Z,954.81
2022-10-23T08:29:31.141Z,954.74
2022-10-23T08:30:31.135Z,954.71
2022-10-23T08:31:31.126Z,954.8
2022-10-23T08:32:31.117Z,954.75
2022-10-23T08:33:31.106Z,954.78
2022-10-23T08:34:31.099Z,954.77
2022-10-23T08:35:31.088Z,954.73
2022-10-23T08:36:31.081Z,954.75
2022-10-23T08:37:31.097Z,954.75
2022-10-23T08:38:31.065Z,954.77
2022-10-23T08:39:31.056Z,954.75
2022-10-23T08:40:31.047Z,954.76
2022-10-23T08:41:31.037Z,954.72
2022-10-23T08:42:31.029Z,954.68
2022-10-23T08:43:31.035Z,954.68
2022-10-23T08:44:31.015Z,954.65
2022-10-23T08:45:31.003Z,954.67
2022-10-23T08:46:30.994Z,954.66
2022-10-23T08:47:30.985Z,954.62
2022-10-23T08:48:30.978Z,954.64
2022-10-23T08:49:30.969Z,954.67
2022-10-23T08:50:30.964Z,954.66
2022-10-23T08:51:30.952Z,954.73
2022-10-23T08:52:30.947Z,954.66
2022-10-23T08:53:30.959Z,954.72
2022-10-23T08:54:30.927Z,954.66
2022-10-23T08:55:30.918Z,954.68
2022-10-23T08:56:30.911Z,954.68
2022-10-23T08:57:30.904Z,954.65
2022-10-23T08:58:30.896Z,954.69
2022-10-23T08:59:30.887Z,954.68
2022-10-23T09:00:30.877Z,954.7
2022-10-23T09:01:31.028Z,954.7
2022-10-23T09:02:30.861Z,954.69
2022-10-23T09:03:30.866Z,954.65
2022-10-23T09:04:30.850Z,954.64
2022-10-23T09:05:30.841Z,954.67
2022-10-23T09:06:30.830Z,954.66
2022-10-23T09:07:30.825Z,954.66
2022-10-23T09:08:30.815Z,954.64
2022-10-23T09:09:30.835Z,954.71
2022-10-23T09:10:30.800Z,954.61
2022-10-23T09:11:30.799Z,954.7
2022-10-23T09:12:30.784Z,954.67
2022-10-23T09:13:30.780Z,954.6
2022-10-23T09:14:30.771Z,954.63
2022-10-23T09:15:30.763Z,954.69
2022-10-23T09:16:30.757Z,954.7
2022-10-23T09:17:30.747Z,954.66
2022-10-23T09:18:30.740Z,954.66
2022-10-23T09:19:30.734Z,954.64
2022-10-23T09:20:30.725Z,954.6
2022-10-23T09:21:30.722Z,954.56
2022-10-23T09:22:30.711Z,954.57
2022-10-23T09:23:30.704Z,954.63
2022-10-23T09:24:30.695Z,954.56
2022-10-23T09:25:30.714Z,954.58
2022-10-23T09:26:30.680Z,954.52
2022-10-23T09:27:30.674Z,954.52
2022-10-23T09:28:30.665Z,954.49
2022-10-23T09:29:30.660Z,954.53
2022-10-23T09:30:30.651Z,954.54
2022-10-23T09:31:30.645Z,954.48
2022-10-23T09:32:30.637Z,954.53
2022-10-23T09:33:30.630Z,954.49
2022-10-23T09:34:30.620Z,954.48
2022-10-23T09:35:30.615Z,954.49
2022-10-23T09:36:30.605Z,954.54
2022-10-23T09:37:30.599Z,954.51
2022-10-23T09:38:30.593Z,954.49
2022-10-23T09:39:30.587Z,954.54
2022-10-23T09:40:30.576Z,954.49
2022-10-23T09:41:30.593Z,954.49
2022-10-23T09:42:30.561Z,954.47
2022-10-23T09:43:30.557Z,954.53
2022-10-23T09:44:30.546Z,954.47
2022-10-23T09:45:30.543Z,954.51
2022-10-23T09:46:30.531Z,954.48
2022-10-23T09:47:30.527Z,954.43
2022-10-23T09:48:30.518Z,954.53
2022-10-23T09:49:30.509Z,954.38
2022-10-23T09:50:30.504Z,954.48
2022-10-23T09:51:30.495Z,954.46
2022-10-23T09:52:30.487Z,954.48
2022-10-23T09:53:30.481Z,954.47
2022-10-23T09:54:30.474Z,954.47
2022-10-23T09:55:30.465Z,954.47
2022-10-23T09:56:30.463Z,954.47
2022-10-23T09:57:30.477Z,954.47
2022-10-23T09:58:30.449Z,954.47
2022-10-23T09:59:30.437Z,954.41
2022-10-23T10:00:30.432Z,954.39
2022-10-23T10:01:30.599Z,954.42
2022-10-23T10:02:30.417Z,954.38
2022-10-23T10:03:30.409Z,954.42
2022-10-23T10:04:30.403Z,954.37
2022-10-23T10:05:30.395Z,954.37
2022-10-23T10:06:30.513Z,954.39
2022-10-23T10:07:32.129Z,954.41
2022-10-23T10:08:30.376Z,954.37
2022-10-23T10:09:30.367Z,954.33
2022-10-23T10:10:30.360Z,954.32
2022-10-23T10:11:30.354Z,954.31
2022-10-23T10:12:30.347Z,954.32
2022-10-23T10:13:30.364Z,954.31
2022-10-23T10:14:30.335Z,954.34
2022-10-23T10:15:30.326Z,954.35
2022-10-23T10:16:30.370Z,954.29
2022-10-23T10:17:30.316Z,954.28
2022-10-23T10:18:30.309Z,954.31
2022-10-23T10:19:30.298Z,954.26
2022-10-23T10:20:30.295Z,954.24
2022-10-23T10:21:30.288Z,954.26
2022-10-23T10:22:30.280Z,954.26
2022-10-23T10:23:30.272Z,954.16
2022-10-23T10:24:30.270Z,954.18
2022-10-23T10:25:30.258Z,954.18
2022-10-23T10:27:30.245Z,954.15
2022-10-23T10:28:30.240Z,954.17
2022-10-23T10:29:30.260Z,954.1
2022-10-23T10:30:30.231Z,954.12
2022-10-23T10:31:30.220Z,954.06
2022-10-23T10:32:30.215Z,954.08
2022-10-23T10:33:30.208Z,954.06
2022-10-23T10:34:30.205Z,954.05
2022-10-23T10:35:30.194Z,954.01
2022-10-23T10:36:30.191Z,954.04
2022-10-23T10:37:30.183Z,954.01
2022-10-23T10:38:30.177Z,954.02
2022-10-23T10:39:30.179Z,954.04
2022-10-23T10:40:30.166Z,954.02
2022-10-23T10:41:30.177Z,954.02
2022-10-23T10:42:30.169Z,954.03
2022-10-23T10:43:30.166Z,954.01
2022-10-23T10:44:30.159Z,954.01
2022-10-23T10:45:30.176Z,954.03
2022-10-23T10:46:30.148Z,954.01
2022-10-23T10:47:30.140Z,954.07
2022-10-23T10:48:30.134Z,954.05
2022-10-23T10:49:30.128Z,954.04
2022-10-23T10:50:30.121Z,954.01
2022-10-23T10:51:30.119Z,954.07
2022-10-23T10:52:30.107Z,954.02
2022-10-23T10:53:30.106Z,953.94
2022-10-23T10:54:30.097Z,954.02
2022-10-23T10:55:30.094Z,954.02
2022-10-23T10:56:30.084Z,954
2022-10-23T10:57:30.079Z,953.94
2022-10-23T10:58:30.074Z,953.97
2022-10-23T10:59:30.067Z,953.93
2022-10-23T11:00:30.060Z,953.99
2022-10-23T11:01:30.228Z,953.97
2022-10-23T11:02:30.048Z,953.95
2022-10-23T11:03:30.044Z,953.83
2022-10-23T11:04:30.039Z,953.85
2022-10-23T11:05:30.034Z,953.83
2022-10-23T11:06:30.040Z,953.82
2022-10-23T11:07:30.025Z,953.77
2022-10-23T11:08:30.014Z,953.73
2022-10-23T11:09:30.010Z,953.73
2022-10-23T11:10:30.002Z,953.7
2022-10-23T11:11:29.999Z,953.75
2022-10-23T11:12:29.991Z,953.62
2022-10-23T11:13:29.988Z,953.63
2022-10-23T11:14:29.980Z,953.58
2022-10-23T11:15:29.977Z,953.58
2022-10-23T11:16:29.969Z,953.63
2022-10-23T11:17:29.991Z,953.56
2022-10-23T11:18:29.959Z,953.55
2022-10-23T11:19:29.954Z,953.52
2022-10-23T11:20:29.948Z,953.51
2022-10-23T11:21:29.943Z,953.51
2022-10-23T11:22:29.939Z,953.52
2022-10-23T11:23:29.933Z,953.47
2022-10-23T11:24:29.927Z,953.39
2022-10-23T11:25:29.925Z,953.43
2022-10-23T11:26:29.917Z,953.39
2022-10-23T11:27:29.912Z,953.32
2022-10-23T11:28:29.905Z,953.36
2022-10-23T11:29:29.901Z,953.36
2022-10-23T11:30:29.898Z,953.32
2022-10-23T11:31:29.890Z,953.39
2022-10-23T11:32:29.923Z,953.32
2022-10-23T11:33:29.903Z,953.25
2022-10-23T11:34:29.878Z,953.17
2022-10-23T11:35:29.870Z,953.17
2022-10-23T11:36:29.869Z,953.17
2022-10-23T11:37:29.861Z,953.17
2022-10-23T11:38:29.857Z,953.12
2022-10-23T11:39:29.856Z,953.04
2022-10-23T11:40:29.850Z,953.07
2022-10-23T11:41:29.841Z,953.06
2022-10-23T11:42:29.838Z,953.08
2022-10-23T11:43:29.841Z,952.99
2022-10-23T11:44:29.829Z,952.99
2022-10-23T11:45:29.823Z,952.93
2022-10-23T11:46:29.822Z,952.91
2022-10-23T11:47:29.813Z,952.93
2022-10-23T11:48:29.811Z,952.85
2022-10-23T11:49:29.831Z,952.86
2022-10-23T11:50:29.806Z,952.85
2022-10-23T11:51:29.796Z,952.8
2022-10-23T11:52:29.793Z,952.78
2022-10-23T11:53:29.787Z,952.8
2022-10-23T11:54:29.784Z,952.81
2022-10-23T11:55:29.779Z,952.77
2022-10-23T11:56:29.776Z,952.75
2022-10-23T11:58:29.767Z,952.79
2022-10-23T11:59:29.761Z,952.74
2022-10-23T12:00:29.757Z,952.78
2022-10-23T12:01:29.862Z,952.75
2022-10-23T12:02:29.813Z,952.68
2022-10-23T12:03:29.744Z,952.75
2022-10-23T12:04:29.743Z,952.8
2022-10-23T12:05:29.763Z,952.72
2022-10-23T12:06:29.733Z,952.71
2022-10-23T12:07:29.727Z,952.74
2022-10-23T12:08:29.724Z,952.7
2022-10-23T12:09:29.717Z,952.67
2022-10-23T12:10:29.716Z,952.69
2022-10-23T12:11:29.709Z,952.71
2022-10-23T12:12:29.705Z,952.7
2022-10-23T12:13:29.701Z,952.68
2022-10-23T12:14:29.700Z,952.71
2022-10-23T12:15:29.692Z,952.68
2022-10-23T12:16:29.689Z,952.66
2022-10-23T12:17:29.683Z,952.69
2022-10-23T12:18:29.679Z,952.68
2022-10-23T12:19:29.690Z,952.69
2022-10-23T12:20:29.671Z,952.65
2022-10-23T12:21:29.691Z,952.68
2022-10-23T12:22:29.690Z,952.68
2022-10-23T12:23:29.658Z,952.69
2022-10-23T12:24:29.652Z,952.61
2022-10-23T12:25:29.650Z,952.65
2022-10-23T12:26:29.643Z,952.67
2022-10-23T12:27:29.641Z,952.65
2022-10-23T12:28:29.635Z,952.64
2022-10-23T12:29:29.638Z,952.66
2022-10-23T12:30:29.625Z,952.7
2022-10-23T12:31:29.622Z,952.69
2022-10-23T12:32:29.616Z,952.67
2022-10-23T12:33:29.614Z,952.67
2022-10-23T12:34:29.607Z,952.62
2022-10-23T12:35:29.605Z,952.66
2022-10-23T12:36:29.599Z,952.61
2022-10-23T12:37:29.621Z,952.59
2022-10-23T12:38:32.532Z,952.63
2022-10-23T12:39:29.599Z,952.61
2022-10-23T12:40:29.582Z,952.53
2022-10-23T12:41:29.578Z,952.56
2022-10-23T12:42:29.572Z,952.55
2022-10-23T12:43:29.570Z,952.57
2022-10-23T12:44:29.564Z,952.59
2022-10-23T12:45:29.559Z,952.53
2022-10-23T12:46:29.553Z,952.54
2022-10-23T12:47:29.578Z,952.53
2022-10-23T12:48:29.547Z,952.51
2022-10-23T12:49:29.545Z,952.48
2022-10-23T12:50:29.534Z,952.45
2022-10-23T12:51:29.534Z,952.4
2022-10-23T12:52:29.528Z,952.39
2022-10-23T12:53:29.554Z,952.35